sensor_id;sensor_type;location;lat;lon;timestamp;P1;durP1;ratioP1;P2;durP2;ratioP2
47483;SDS011;54076;50.322;18.650;2023-08-06T00:03:37;10.00;;;4.70;;
47483;SDS011;54076;50.322;18.650;2023-08-06T00:08:38;10.00;;;5.20;;
47483;SDS011;54076;50.322;18.650;2023-08-06T00:13:39;12.70;;;6.40;;
47483;SDS011;54076;50.322;18.650;2023-08-06T00:18:40;12.60;;;6.30;;
47483;SDS011;54076;50.322;18.650;2023-08-06T00:23:41;16.50;;;7.70;;
47483;SDS011;54076;50.322;18.650;2023-08-06T00:28:42;17.40;;;7.60;;
47483;SDS011;54076;50.322;18.650;2023-08-06T00:33:43;17.70;;;7.70;;
47483;SDS011;54076;50.322;18.650;2023-08-06T00:38:44;18.60;;;8.70;;
47483;SDS011;54076;50.322;18.650;2023-08-06T00:43:45;20.60;;;9.20;;
47483;SDS011;54076;50.322;18.650;2023-08-06T00:48:46;19.50;;;8.90;;
47483;SDS011;54076;50.322;18.650;2023-08-06T00:53:47;22.50;;;9.10;;
47483;SDS011;54076;50.322;18.650;2023-08-06T00:58:50;18.70;;;9.60;;
47483;SDS011;54076;50.322;18.650;2023-08-06T01:03:51;20.30;;;8.80;;
47483;SDS011;54076;50.322;18.650;2023-08-06T01:08:56;21.60;;;9.40;;
47483;SDS011;54076;50.322;18.650;2023-08-06T01:14:06;21.70;;;9.10;;
47483;SDS011;54076;50.322;18.650;2023-08-06T01:19:34;22.70;;;9.50;;
47483;SDS011;54076;50.322;18.650;2023-08-06T01:24:35;19.60;;;8.90;;
47483;SDS011;54076;50.322;18.650;2023-08-06T01:29:52;23.70;;;9.60;;
47483;SDS011;54076;50.322;18.650;2023-08-06T01:35:04;22.40;;;9.00;;
47483;SDS011;54076;50.322;18.650;2023-08-06T01:40:09;19.80;;;8.50;;
47483;SDS011;54076;50.322;18.650;2023-08-06T01:45:12;18.10;;;8.30;;
47483;SDS011;54076;50.322;18.650;2023-08-06T01:50:13;19.70;;;8.20;;
47483;SDS011;54076;50.322;18.650;2023-08-06T01:55:14;19.00;;;8.40;;
47483;SDS011;54076;50.322;18.650;2023-08-06T02:00:15;18.60;;;8.70;;
47483;SDS011;54076;50.322;18.650;2023-08-06T02:05:16;19.70;;;7.90;;
47483;SDS011;54076;50.322;18.650;2023-08-06T02:10:16;18.90;;;7.70;;
47483;SDS011;54076;50.322;18.650;2023-08-06T02:15:17;17.90;;;8.10;;
47483;SDS011;54076;50.322;18.650;2023-08-06T02:20:18;20.10;;;8.30;;
47483;SDS011;54076;50.322;18.650;2023-08-06T02:25:19;17.80;;;8.40;;
47483;SDS011;54076;50.322;18.650;2023-08-06T02:30:20;17.90;;;8.20;;
47483;SDS011;54076;50.322;18.650;2023-08-06T02:35:21;16.70;;;8.00;;
47483;SDS011;54076;50.322;18.650;2023-08-06T02:40:22;18.90;;;8.90;;
47483;SDS011;54076;50.322;18.650;2023-08-06T02:45:23;19.50;;;8.20;;
47483;SDS011;54076;50.322;18.650;2023-08-06T02:50:23;20.70;;;8.60;;
47483;SDS011;54076;50.322;18.650;2023-08-06T02:55:24;22.50;;;8.90;;
47483;SDS011;54076;50.322;18.650;2023-08-06T03:00:25;19.00;;;8.80;;
47483;SDS011;54076;50.322;18.650;2023-08-06T03:05:26;24.10;;;9.40;;
47483;SDS011;54076;50.322;18.650;2023-08-06T03:10:27;19.40;;;8.50;;
47483;SDS011;54076;50.322;18.650;2023-08-06T03:15:28;20.90;;;9.10;;
47483;SDS011;54076;50.322;18.650;2023-08-06T03:20:29;20.20;;;9.00;;
47483;SDS011;54076;50.322;18.650;2023-08-06T03:25:30;22.90;;;8.60;;
47483;SDS011;54076;50.322;18.650;2023-08-06T03:30:30;18.20;;;8.40;;
47483;SDS011;54076;50.322;18.650;2023-08-06T03:35:31;18.80;;;8.30;;
47483;SDS011;54076;50.322;18.650;2023-08-06T03:40:35;18.20;;;8.00;;
47483;SDS011;54076;50.322;18.650;2023-08-06T03:45:36;16.10;;;7.30;;
47483;SDS011;54076;50.322;18.650;2023-08-06T03:50:37;12.90;;;6.00;;
47483;SDS011;54076;50.322;18.650;2023-08-06T03:55:38;8.30;;;3.90;;
47483;SDS011;54076;50.322;18.650;2023-08-06T04:00:39;5.30;;;2.70;;
47483;SDS011;54076;50.322;18.650;2023-08-06T04:05:40;4.40;;;1.80;;
47483;SDS011;54076;50.322;18.650;2023-08-06T04:10:41;4.60;;;2.20;;
47483;SDS011;54076;50.322;18.650;2023-08-06T04:15:42;2.90;;;1.20;;
47483;SDS011;54076;50.322;18.650;2023-08-06T04:20:43;2.80;;;1.00;;
47483;SDS011;54076;50.322;18.650;2023-08-06T04:25:45;2.20;;;0.80;;
47483;SDS011;54076;50.322;18.650;2023-08-06T04:30:46;3.10;;;0.70;;
47483;SDS011;54076;50.322;18.650;2023-08-06T04:35:47;2.40;;;0.60;;
47483;SDS011;54076;50.322;18.650;2023-08-06T04:40:55;2.50;;;0.70;;
47483;SDS011;54076;50.322;18.650;2023-08-06T04:45:56;2.40;;;0.60;;
47483;SDS011;54076;50.322;18.650;2023-08-06T04:50:57;3.40;;;0.70;;
47483;SDS011;54076;50.322;18.650;2023-08-06T04:55:57;5.10;;;0.70;;
47483;SDS011;54076;50.322;18.650;2023-08-06T05:00:58;5.10;;;1.40;;
47483;SDS011;54076;50.322;18.650;2023-08-06T05:05:59;3.50;;;0.60;;
47483;SDS011;54076;50.322;18.650;2023-08-06T05:11:00;2.80;;;0.50;;
47483;SDS011;54076;50.322;18.650;2023-08-06T05:16:01;2.10;;;0.60;;
47483;SDS011;54076;50.322;18.650;2023-08-06T05:21:02;2.00;;;0.60;;
47483;SDS011;54076;50.322;18.650;2023-08-06T05:26:03;3.20;;;0.60;;
47483;SDS011;54076;50.322;18.650;2023-08-06T05:31:04;3.40;;;0.60;;
47483;SDS011;54076;50.322;18.650;2023-08-06T05:36:05;3.30;;;0.70;;
47483;SDS011;54076;50.322;18.650;2023-08-06T05:41:06;2.90;;;0.50;;
47483;SDS011;54076;50.322;18.650;2023-08-06T05:46:07;3.70;;;0.60;;
47483;SDS011;54076;50.322;18.650;2023-08-06T05:51:08;1.70;;;0.50;;
47483;SDS011;54076;50.322;18.650;2023-08-06T05:56:09;2.90;;;0.60;;
47483;SDS011;54076;50.322;18.650;2023-08-06T06:01:10;2.10;;;0.60;;
47483;SDS011;54076;50.322;18.650;2023-08-06T06:06:10;3.00;;;0.70;;
47483;SDS011;54076;50.322;18.650;2023-08-06T06:11:11;3.50;;;0.60;;
47483;SDS011;54076;50.322;18.650;2023-08-06T06:16:12;2.70;;;0.40;;
47483;SDS011;54076;50.322;18.650;2023-08-06T06:21:13;2.50;;;0.70;;
47483;SDS011;54076;50.322;18.650;2023-08-06T06:26:14;2.10;;;0.50;;
47483;SDS011;54076;50.322;18.650;2023-08-06T06:31:15;1.80;;;0.50;;
47483;SDS011;54076;50.322;18.650;2023-08-06T06:36:16;1.70;;;0.50;;
47483;SDS011;54076;50.322;18.650;2023-08-06T06:41:17;2.10;;;0.60;;
47483;SDS011;54076;50.322;18.650;2023-08-06T06:46:18;2.10;;;0.50;;
47483;SDS011;54076;50.322;18.650;2023-08-06T06:51:18;1.60;;;0.50;;
47483;SDS011;54076;50.322;18.650;2023-08-06T06:56:19;2.50;;;0.70;;
47483;SDS011;54076;50.322;18.650;2023-08-06T07:01:20;2.50;;;0.50;;
47483;SDS011;54076;50.322;18.650;2023-08-06T07:06:21;1.80;;;0.40;;
47483;SDS011;54076;50.322;18.650;2023-08-06T07:11:22;2.10;;;0.50;;
47483;SDS011;54076;50.322;18.650;2023-08-06T07:16:23;1.80;;;0.50;;
47483;SDS011;54076;50.322;18.650;2023-08-06T07:21:25;2.20;;;0.50;;
47483;SDS011;54076;50.322;18.650;2023-08-06T07:26:25;2.50;;;0.70;;
47483;SDS011;54076;50.322;18.650;2023-08-06T07:31:27;3.40;;;0.60;;
47483;SDS011;54076;50.322;18.650;2023-08-06T07:36:27;2.70;;;0.80;;
47483;SDS011;54076;50.322;18.650;2023-08-06T07:41:28;1.80;;;0.60;;
47483;SDS011;54076;50.322;18.650;2023-08-06T07:46:29;2.90;;;0.60;;
47483;SDS011;54076;50.322;18.650;2023-08-06T07:51:30;3.70;;;0.70;;
47483;SDS011;54076;50.322;18.650;2023-08-06T07:56:31;1.80;;;0.40;;
47483;SDS011;54076;50.322;18.650;2023-08-06T08:01:32;2.10;;;0.70;;
47483;SDS011;54076;50.322;18.650;2023-08-06T08:06:33;2.00;;;0.50;;
47483;SDS011;54076;50.322;18.650;2023-08-06T08:11:34;1.90;;;0.60;;
47483;SDS011;54076;50.322;18.650;2023-08-06T08:16:35;1.50;;;0.50;;
47483;SDS011;54076;50.322;18.650;2023-08-06T08:21:36;1.70;;;0.50;;
47483;SDS011;54076;50.322;18.650;2023-08-06T08:26:37;1.90;;;0.50;;
47483;SDS011;54076;50.322;18.650;2023-08-06T08:31:38;2.00;;;0.60;;
47483;SDS011;54076;50.322;18.650;2023-08-06T08:36:40;1.80;;;0.60;;
47483;SDS011;54076;50.322;18.650;2023-08-06T08:41:41;1.80;;;0.50;;
47483;SDS011;54076;50.322;18.650;2023-08-06T08:46:42;2.70;;;0.50;;
47483;SDS011;54076;50.322;18.650;2023-08-06T08:51:44;1.40;;;0.40;;
47483;SDS011;54076;50.322;18.650;2023-08-06T08:56:46;1.80;;;0.50;;
47483;SDS011;54076;50.322;18.650;2023-08-06T09:01:48;1.70;;;0.50;;
47483;SDS011;54076;50.322;18.650;2023-08-06T09:06:53;2.20;;;0.70;;
47483;SDS011;54076;50.322;18.650;2023-08-06T09:12:02;2.50;;;0.60;;
47483;SDS011;54076;50.322;18.650;2023-08-06T09:17:11;2.10;;;0.50;;
47483;SDS011;54076;50.322;18.650;2023-08-06T09:22:12;1.70;;;0.60;;
47483;SDS011;54076;50.322;18.650;2023-08-06T09:27:14;2.70;;;0.90;;
47483;SDS011;54076;50.322;18.650;2023-08-06T09:32:16;2.20;;;0.50;;
47483;SDS011;54076;50.322;18.650;2023-08-06T09:37:16;2.80;;;0.60;;
47483;SDS011;54076;50.322;18.650;2023-08-06T09:42:17;2.30;;;0.60;;
47483;SDS011;54076;50.322;18.650;2023-08-06T09:47:18;1.90;;;0.60;;
47483;SDS011;54076;50.322;18.650;2023-08-06T09:52:20;1.70;;;0.50;;
47483;SDS011;54076;50.322;18.650;2023-08-06T09:57:22;2.40;;;0.50;;
47483;SDS011;54076;50.322;18.650;2023-08-06T10:02:25;2.30;;;0.70;;
47483;SDS011;54076;50.322;18.650;2023-08-06T10:07:27;4.90;;;1.80;;
47483;SDS011;54076;50.322;18.650;2023-08-06T10:12:32;2.20;;;0.60;;
47483;SDS011;54076;50.322;18.650;2023-08-06T10:17:36;1.90;;;0.70;;
47483;SDS011;54076;50.322;18.650;2023-08-06T10:22:42;1.90;;;0.60;;
47483;SDS011;54076;50.322;18.650;2023-08-06T10:32:48;1.60;;;0.50;;
47483;SDS011;54076;50.322;18.650;2023-08-06T10:37:51;2.10;;;0.70;;
47483;SDS011;54076;50.322;18.650;2023-08-06T10:42:52;2.30;;;0.70;;
47483;SDS011;54076;50.322;18.650;2023-08-06T10:47:52;3.10;;;0.70;;
47483;SDS011;54076;50.322;18.650;2023-08-06T10:52:53;2.20;;;0.60;;
47483;SDS011;54076;50.322;18.650;2023-08-06T10:57:55;2.10;;;0.60;;
47483;SDS011;54076;50.322;18.650;2023-08-06T11:02:58;3.20;;;1.00;;
47483;SDS011;54076;50.322;18.650;2023-08-06T11:07:59;2.00;;;0.70;;
47483;SDS011;54076;50.322;18.650;2023-08-06T11:13:03;1.80;;;0.60;;
47483;SDS011;54076;50.322;18.650;2023-08-06T11:18:04;2.20;;;0.60;;
47483;SDS011;54076;50.322;18.650;2023-08-06T11:23:05;2.00;;;0.50;;
47483;SDS011;54076;50.322;18.650;2023-08-06T11:28:06;4.20;;;1.40;;
47483;SDS011;54076;50.322;18.650;2023-08-06T11:33:07;6.60;;;2.40;;
47483;SDS011;54076;50.322;18.650;2023-08-06T11:38:10;2.40;;;0.80;;
47483;SDS011;54076;50.322;18.650;2023-08-06T11:43:14;3.70;;;0.90;;
47483;SDS011;54076;50.322;18.650;2023-08-06T11:48:15;2.60;;;0.70;;
47483;SDS011;54076;50.322;18.650;2023-08-06T11:53:17;2.40;;;0.70;;
47483;SDS011;54076;50.322;18.650;2023-08-06T11:58:18;2.20;;;0.80;;
47483;SDS011;54076;50.322;18.650;2023-08-06T12:03:19;2.60;;;0.90;;
47483;SDS011;54076;50.322;18.650;2023-08-06T12:08:20;2.60;;;0.80;;
47483;SDS011;54076;50.322;18.650;2023-08-06T12:13:27;3.10;;;0.80;;
47483;SDS011;54076;50.322;18.650;2023-08-06T12:18:28;2.90;;;0.90;;
47483;SDS011;54076;50.322;18.650;2023-08-06T12:23:29;4.80;;;0.90;;
47483;SDS011;54076;50.322;18.650;2023-08-06T12:28:30;2.30;;;0.70;;
47483;SDS011;54076;50.322;18.650;2023-08-06T12:33:31;3.90;;;1.50;;
47483;SDS011;54076;50.322;18.650;2023-08-06T12:38:32;3.20;;;0.80;;
47483;SDS011;54076;50.322;18.650;2023-08-06T12:43:34;2.20;;;0.80;;
47483;SDS011;54076;50.322;18.650;2023-08-06T12:48:35;2.50;;;0.70;;
47483;SDS011;54076;50.322;18.650;2023-08-06T12:53:36;2.40;;;0.50;;
47483;SDS011;54076;50.322;18.650;2023-08-06T12:58:37;2.60;;;0.90;;
47483;SDS011;54076;50.322;18.650;2023-08-06T13:03:39;2.30;;;0.50;;
47483;SDS011;54076;50.322;18.650;2023-08-06T13:08:40;1.90;;;0.50;;
47483;SDS011;54076;50.322;18.650;2023-08-06T13:13:41;2.10;;;0.70;;
47483;SDS011;54076;50.322;18.650;2023-08-06T13:18:42;2.00;;;0.60;;
47483;SDS011;54076;50.322;18.650;2023-08-06T13:23:43;2.20;;;0.70;;
47483;SDS011;54076;50.322;18.650;2023-08-06T13:28:44;2.20;;;0.60;;
47483;SDS011;54076;50.322;18.650;2023-08-06T13:33:45;1.90;;;0.60;;
47483;SDS011;54076;50.322;18.650;2023-08-06T13:38:46;2.00;;;0.60;;
47483;SDS011;54076;50.322;18.650;2023-08-06T13:43:47;2.60;;;0.60;;
47483;SDS011;54076;50.322;18.650;2023-08-06T13:48:48;2.00;;;0.70;;
47483;SDS011;54076;50.322;18.650;2023-08-06T13:53:53;1.90;;;0.60;;
47483;SDS011;54076;50.322;18.650;2023-08-06T13:58:54;2.00;;;0.50;;
47483;SDS011;54076;50.322;18.650;2023-08-06T14:03:55;2.00;;;0.60;;
47483;SDS011;54076;50.322;18.650;2023-08-06T14:08:56;1.80;;;0.60;;
47483;SDS011;54076;50.322;18.650;2023-08-06T14:13:57;2.40;;;0.70;;
47483;SDS011;54076;50.322;18.650;2023-08-06T14:18:58;1.80;;;0.40;;
47483;SDS011;54076;50.322;18.650;2023-08-06T14:23:59;1.90;;;0.60;;
47483;SDS011;54076;50.322;18.650;2023-08-06T14:29:00;2.50;;;0.70;;
47483;SDS011;54076;50.322;18.650;2023-08-06T14:34:02;2.90;;;0.80;;
47483;SDS011;54076;50.322;18.650;2023-08-06T14:39:02;4.10;;;0.90;;
47483;SDS011;54076;50.322;18.650;2023-08-06T14:44:03;2.70;;;1.00;;
47483;SDS011;54076;50.322;18.650;2023-08-06T14:49:04;2.80;;;0.70;;
47483;SDS011;54076;50.322;18.650;2023-08-06T14:54:06;2.40;;;0.90;;
47483;SDS011;54076;50.322;18.650;2023-08-06T14:59:06;2.60;;;1.00;;
47483;SDS011;54076;50.322;18.650;2023-08-06T15:04:07;2.40;;;0.80;;
47483;SDS011;54076;50.322;18.650;2023-08-06T15:09:08;3.50;;;0.90;;
47483;SDS011;54076;50.322;18.650;2023-08-06T15:14:09;2.60;;;0.90;;
47483;SDS011;54076;50.322;18.650;2023-08-06T15:19:10;2.90;;;0.80;;
47483;SDS011;54076;50.322;18.650;2023-08-06T15:24:11;2.60;;;0.70;;
47483;SDS011;54076;50.322;18.650;2023-08-06T15:29:12;2.80;;;0.80;;
47483;SDS011;54076;50.322;18.650;2023-08-06T15:34:13;3.50;;;0.90;;
47483;SDS011;54076;50.322;18.650;2023-08-06T15:39:15;3.60;;;0.80;;
47483;SDS011;54076;50.322;18.650;2023-08-06T15:44:16;2.20;;;0.70;;
47483;SDS011;54076;50.322;18.650;2023-08-06T15:49:17;2.50;;;0.70;;
47483;SDS011;54076;50.322;18.650;2023-08-06T15:54:18;2.20;;;0.70;;
47483;SDS011;54076;50.322;18.650;2023-08-06T15:59:28;2.90;;;0.90;;
47483;SDS011;54076;50.322;18.650;2023-08-06T16:04:30;3.90;;;0.70;;
47483;SDS011;54076;50.322;18.650;2023-08-06T16:09:31;4.30;;;0.90;;
47483;SDS011;54076;50.322;18.650;2023-08-06T16:14:32;3.10;;;0.80;;
47483;SDS011;54076;50.322;18.650;2023-08-06T16:19:33;2.50;;;0.70;;
47483;SDS011;54076;50.322;18.650;2023-08-06T16:24:34;2.30;;;0.80;;
47483;SDS011;54076;50.322;18.650;2023-08-06T16:29:36;2.30;;;0.60;;
47483;SDS011;54076;50.322;18.650;2023-08-06T16:34:37;2.40;;;0.70;;
47483;SDS011;54076;50.322;18.650;2023-08-06T16:39:38;2.40;;;0.70;;
47483;SDS011;54076;50.322;18.650;2023-08-06T16:44:39;2.60;;;0.90;;
47483;SDS011;54076;50.322;18.650;2023-08-06T16:49:41;4.00;;;0.80;;
47483;SDS011;54076;50.322;18.650;2023-08-06T16:54:42;2.80;;;1.10;;
47483;SDS011;54076;50.322;18.650;2023-08-06T16:59:43;3.90;;;0.80;;
47483;SDS011;54076;50.322;18.650;2023-08-06T17:04:45;3.80;;;1.00;;
47483;SDS011;54076;50.322;18.650;2023-08-06T17:09:46;3.00;;;1.00;;
47483;SDS011;54076;50.322;18.650;2023-08-06T17:14:47;3.00;;;1.00;;
47483;SDS011;54076;50.322;18.650;2023-08-06T17:19:47;3.10;;;0.90;;
47483;SDS011;54076;50.322;18.650;2023-08-06T17:24:48;3.70;;;1.50;;
47483;SDS011;54076;50.322;18.650;2023-08-06T17:29:49;3.20;;;1.20;;
47483;SDS011;54076;50.322;18.650;2023-08-06T17:34:50;3.30;;;1.20;;
47483;SDS011;54076;50.322;18.650;2023-08-06T17:39:51;4.40;;;0.80;;
47483;SDS011;54076;50.322;18.650;2023-08-06T17:44:52;2.50;;;0.90;;
47483;SDS011;54076;50.322;18.650;2023-08-06T17:49:53;2.60;;;0.90;;
47483;SDS011;54076;50.322;18.650;2023-08-06T17:54:54;4.50;;;1.10;;
47483;SDS011;54076;50.322;18.650;2023-08-06T17:59:55;4.40;;;1.00;;
47483;SDS011;54076;50.322;18.650;2023-08-06T18:04:56;3.70;;;0.90;;
47483;SDS011;54076;50.322;18.650;2023-08-06T18:09:57;2.30;;;0.80;;
47483;SDS011;54076;50.322;18.650;2023-08-06T18:14:57;3.10;;;1.00;;
47483;SDS011;54076;50.322;18.650;2023-08-06T18:19:58;3.20;;;1.00;;
47483;SDS011;54076;50.322;18.650;2023-08-06T18:24:59;2.80;;;1.00;;
47483;SDS011;54076;50.322;18.650;2023-08-06T18:30:05;3.30;;;0.80;;
47483;SDS011;54076;50.322;18.650;2023-08-06T18:35:07;3.00;;;1.10;;
47483;SDS011;54076;50.322;18.650;2023-08-06T18:40:09;3.50;;;0.80;;
47483;SDS011;54076;50.322;18.650;2023-08-06T18:45:10;3.90;;;1.10;;
47483;SDS011;54076;50.322;18.650;2023-08-06T18:50:11;2.80;;;1.20;;
47483;SDS011;54076;50.322;18.650;2023-08-06T18:55:12;4.80;;;1.00;;
47483;SDS011;54076;50.322;18.650;2023-08-06T19:00:13;4.10;;;0.80;;
47483;SDS011;54076;50.322;18.650;2023-08-06T19:05:15;2.60;;;1.00;;
47483;SDS011;54076;50.322;18.650;2023-08-06T19:10:16;3.40;;;0.80;;
47483;SDS011;54076;50.322;18.650;2023-08-06T19:15:17;2.90;;;1.10;;
47483;SDS011;54076;50.322;18.650;2023-08-06T19:20:18;2.80;;;1.00;;
47483;SDS011;54076;50.322;18.650;2023-08-06T19:25:19;2.90;;;1.00;;
47483;SDS011;54076;50.322;18.650;2023-08-06T19:30:20;3.10;;;0.90;;
47483;SDS011;54076;50.322;18.650;2023-08-06T19:35:21;3.50;;;1.10;;
47483;SDS011;54076;50.322;18.650;2023-08-06T19:40:22;3.30;;;1.30;;
47483;SDS011;54076;50.322;18.650;2023-08-06T19:45:23;3.00;;;1.20;;
47483;SDS011;54076;50.322;18.650;2023-08-06T19:50:24;3.90;;;1.40;;
47483;SDS011;54076;50.322;18.650;2023-08-06T19:55:25;4.20;;;1.10;;
47483;SDS011;54076;50.322;18.650;2023-08-06T20:00:26;4.00;;;1.10;;
47483;SDS011;54076;50.322;18.650;2023-08-06T20:05:27;2.80;;;0.90;;
47483;SDS011;54076;50.322;18.650;2023-08-06T20:10:28;2.80;;;0.90;;
47483;SDS011;54076;50.322;18.650;2023-08-06T20:15:32;3.70;;;1.30;;
47483;SDS011;54076;50.322;18.650;2023-08-06T20:20:36;2.90;;;1.10;;
47483;SDS011;54076;50.322;18.650;2023-08-06T20:25:38;4.10;;;1.10;;
47483;SDS011;54076;50.322;18.650;2023-08-06T20:30:40;3.20;;;0.90;;
47483;SDS011;54076;50.322;18.650;2023-08-06T20:35:43;3.80;;;1.00;;
47483;SDS011;54076;50.322;18.650;2023-08-06T20:40:44;4.10;;;1.70;;
47483;SDS011;54076;50.322;18.650;2023-08-06T20:45:52;4.30;;;1.00;;
47483;SDS011;54076;50.322;18.650;2023-08-06T20:50:57;2.70;;;1.10;;
47483;SDS011;54076;50.322;18.650;2023-08-06T20:55:59;2.90;;;1.00;;
47483;SDS011;54076;50.322;18.650;2023-08-06T21:01:01;3.50;;;1.20;;
47483;SDS011;54076;50.322;18.650;2023-08-06T21:06:06;3.20;;;1.20;;
47483;SDS011;54076;50.322;18.650;2023-08-06T21:11:07;4.30;;;1.40;;
47483;SDS011;54076;50.322;18.650;2023-08-06T21:16:09;4.00;;;1.20;;
47483;SDS011;54076;50.322;18.650;2023-08-06T21:21:10;3.70;;;1.40;;
47483;SDS011;54076;50.322;18.650;2023-08-06T21:26:11;3.40;;;1.30;;
47483;SDS011;54076;50.322;18.650;2023-08-06T21:31:12;3.80;;;1.20;;
47483;SDS011;54076;50.322;18.650;2023-08-06T21:36:13;3.60;;;1.30;;
47483;SDS011;54076;50.322;18.650;2023-08-06T21:41:15;5.00;;;1.20;;
47483;SDS011;54076;50.322;18.650;2023-08-06T21:46:17;3.20;;;1.30;;
47483;SDS011;54076;50.322;18.650;2023-08-06T21:51:19;5.90;;;1.40;;
47483;SDS011;54076;50.322;18.650;2023-08-06T21:56:20;3.30;;;1.20;;
47483;SDS011;54076;50.322;18.650;2023-08-06T22:01:21;3.30;;;1.30;;
47483;SDS011;54076;50.322;18.650;2023-08-06T22:06:22;3.90;;;1.20;;
47483;SDS011;54076;50.322;18.650;2023-08-06T22:11:23;3.70;;;1.60;;
47483;SDS011;54076;50.322;18.650;2023-08-06T22:16:24;3.30;;;1.40;;
47483;SDS011;54076;50.322;18.650;2023-08-06T22:21:25;7.20;;;1.30;;
47483;SDS011;54076;50.322;18.650;2023-08-06T22:26:26;4.60;;;1.50;;
47483;SDS011;54076;50.322;18.650;2023-08-06T22:31:27;3.10;;;1.40;;
47483;SDS011;54076;50.322;18.650;2023-08-06T22:36:28;5.70;;;1.90;;
47483;SDS011;54076;50.322;18.650;2023-08-06T22:41:29;3.50;;;1.50;;
47483;SDS011;54076;50.322;18.650;2023-08-06T22:46:30;6.30;;;2.20;;
47483;SDS011;54076;50.322;18.650;2023-08-06T22:51:31;10.20;;;2.10;;
47483;SDS011;54076;50.322;18.650;2023-08-06T22:56:32;6.70;;;1.70;;
47483;SDS011;54076;50.322;18.650;2023-08-06T23:01:34;3.30;;;1.30;;
47483;SDS011;54076;50.322;18.650;2023-08-06T23:06:35;4.90;;;1.40;;
47483;SDS011;54076;50.322;18.650;2023-08-06T23:11:36;3.70;;;1.40;;
47483;SDS011;54076;50.322;18.650;2023-08-06T23:16:37;3.30;;;1.50;;
47483;SDS011;54076;50.322;18.650;2023-08-06T23:21:39;3.80;;;1.90;;
47483;SDS011;54076;50.322;18.650;2023-08-06T23:26:40;4.40;;;1.70;;
47483;SDS011;54076;50.322;18.650;2023-08-06T23:31:41;4.20;;;1.50;;
47483;SDS011;54076;50.322;18.650;2023-08-06T23:36:41;3.70;;;1.50;;
47483;SDS011;54076;50.322;18.650;2023-08-06T23:41:42;4.10;;;1.50;;
47483;SDS011;54076;50.322;18.650;2023-08-06T23:46:43;8.60;;;1.80;;
47483;SDS011;54076;50.322;18.650;2023-08-06T23:51:44;4.90;;;1.80;;
47483;SDS011;54076;50.322;18.650;2023-08-06T23:56:47;4.80;;;1.50;;
